sensor_id;sensor_type;location;lat;lon;timestamp;P1;durP1;ratioP1;P2;durP2;ratioP2
76795;SDS011;65745;50.278;18.192;2023-01-16T00:01:41;12.30;;;6.80;;
76795;SDS011;65745;50.278;18.192;2023-01-16T00:04:10;8.40;;;4.40;;
76795;SDS011;65745;50.278;18.192;2023-01-16T00:06:45;8.10;;;5.80;;
76795;SDS011;65745;50.278;18.192;2023-01-16T00:09:14;6.50;;;5.00;;
76795;SDS011;65745;50.278;18.192;2023-01-16T00:11:45;8.20;;;5.30;;
76795;SDS011;65745;50.278;18.192;2023-01-16T00:14:14;6.00;;;4.70;;
76795;SDS011;65745;50.278;18.192;2023-01-16T00:16:44;6.50;;;3.90;;
76795;SDS011;65745;50.278;18.192;2023-01-16T00:19:12;5.80;;;4.30;;
76795;SDS011;65745;50.278;18.192;2023-01-16T00:21:41;6.20;;;3.70;;
76795;SDS011;65745;50.278;18.192;2023-01-16T00:24:11;5.10;;;4.00;;
76795;SDS011;65745;50.278;18.192;2023-01-16T00:26:40;7.30;;;4.80;;
76795;SDS011;65745;50.278;18.192;2023-01-16T00:29:13;7.60;;;5.00;;
76795;SDS011;65745;50.278;18.192;2023-01-16T00:31:42;6.20;;;4.90;;
76795;SDS011;65745;50.278;18.192;2023-01-16T00:34:11;7.70;;;5.30;;
76795;SDS011;65745;50.278;18.192;2023-01-16T00:36:41;7.00;;;4.20;;
76795;SDS011;65745;50.278;18.192;2023-01-16T00:39:13;5.90;;;4.80;;
76795;SDS011;65745;50.278;18.192;2023-01-16T00:41:43;6.80;;;4.10;;
76795;SDS011;65745;50.278;18.192;2023-01-16T00:44:15;6.00;;;4.50;;
76795;SDS011;65745;50.278;18.192;2023-01-16T00:46:44;6.00;;;4.40;;
76795;SDS011;65745;50.278;18.192;2023-01-16T00:49:16;5.30;;;4.20;;
76795;SDS011;65745;50.278;18.192;2023-01-16T00:51:46;5.10;;;3.70;;
76795;SDS011;65745;50.278;18.192;2023-01-16T00:54:16;5.20;;;4.20;;
76795;SDS011;65745;50.278;18.192;2023-01-16T00:56:45;6.50;;;4.30;;
76795;SDS011;65745;50.278;18.192;2023-01-16T00:59:14;5.20;;;3.90;;
76795;SDS011;65745;50.278;18.192;2023-01-16T01:01:44;4.30;;;3.80;;
76795;SDS011;65745;50.278;18.192;2023-01-16T01:04:13;5.20;;;3.60;;
76795;SDS011;65745;50.278;18.192;2023-01-16T01:06:46;4.20;;;3.20;;
76795;SDS011;65745;50.278;18.192;2023-01-16T01:09:16;6.40;;;4.70;;
76795;SDS011;65745;50.278;18.192;2023-01-16T01:11:45;5.00;;;3.80;;
76795;SDS011;65745;50.278;18.192;2023-01-16T01:14:17;4.90;;;4.30;;
76795;SDS011;65745;50.278;18.192;2023-01-16T01:16:46;4.90;;;4.00;;
76795;SDS011;65745;50.278;18.192;2023-01-16T01:19:15;5.50;;;4.70;;
76795;SDS011;65745;50.278;18.192;2023-01-16T01:21:44;9.30;;;6.90;;
76795;SDS011;65745;50.278;18.192;2023-01-16T01:24:16;11.80;;;8.20;;
76795;SDS011;65745;50.278;18.192;2023-01-16T01:26:46;7.70;;;6.40;;
76795;SDS011;65745;50.278;18.192;2023-01-16T01:29:16;6.80;;;5.20;;
76795;SDS011;65745;50.278;18.192;2023-01-16T01:31:50;6.20;;;5.20;;
76795;SDS011;65745;50.278;18.192;2023-01-16T01:34:19;7.70;;;5.90;;
76795;SDS011;65745;50.278;18.192;2023-01-16T01:36:49;9.00;;;6.50;;
76795;SDS011;65745;50.278;18.192;2023-01-16T01:39:18;7.00;;;5.60;;
76795;SDS011;65745;50.278;18.192;2023-01-16T01:41:51;6.70;;;5.30;;
76795;SDS011;65745;50.278;18.192;2023-01-16T01:44:45;7.10;;;5.10;;
76795;SDS011;65745;50.278;18.192;2023-01-16T01:47:18;5.90;;;4.70;;
76795;SDS011;65745;50.278;18.192;2023-01-16T01:49:51;5.80;;;4.80;;
76795;SDS011;65745;50.278;18.192;2023-01-16T01:52:38;8.20;;;5.90;;
76795;SDS011;65745;50.278;18.192;2023-01-16T01:57:39;10.20;;;7.60;;
76795;SDS011;65745;50.278;18.192;2023-01-16T02:00:14;10.40;;;8.00;;
76795;SDS011;65745;50.278;18.192;2023-01-16T02:02:47;8.70;;;7.10;;
76795;SDS011;65745;50.278;18.192;2023-01-16T02:05:21;7.90;;;6.40;;
76795;SDS011;65745;50.278;18.192;2023-01-16T02:07:56;8.00;;;6.80;;
76795;SDS011;65745;50.278;18.192;2023-01-16T02:10:29;8.20;;;6.70;;
76795;SDS011;65745;50.278;18.192;2023-01-16T02:13:09;10.80;;;7.70;;
76795;SDS011;65745;50.278;18.192;2023-01-16T02:15:38;12.80;;;9.20;;
76795;SDS011;65745;50.278;18.192;2023-01-16T02:18:31;10.00;;;7.50;;
76795;SDS011;65745;50.278;18.192;2023-01-16T02:21:29;8.00;;;6.70;;
76795;SDS011;65745;50.278;18.192;2023-01-16T02:30:26;11.30;;;7.30;;
76795;SDS011;65745;50.278;18.192;2023-01-16T02:33:09;13.00;;;8.30;;
76795;SDS011;65745;50.278;18.192;2023-01-16T02:35:50;12.20;;;9.30;;
76795;SDS011;65745;50.278;18.192;2023-01-16T02:38:35;14.20;;;10.70;;
76795;SDS011;65745;50.278;18.192;2023-01-16T02:41:15;12.40;;;9.30;;
76795;SDS011;65745;50.278;18.192;2023-01-16T02:43:57;8.80;;;7.70;;
76795;SDS011;65745;50.278;18.192;2023-01-16T02:46:38;12.30;;;9.60;;
76795;SDS011;65745;50.278;18.192;2023-01-16T02:49:17;15.50;;;10.80;;
76795;SDS011;65745;50.278;18.192;2023-01-16T02:52:01;15.20;;;9.90;;
76795;SDS011;65745;50.278;18.192;2023-01-16T02:54:46;13.30;;;9.80;;
76795;SDS011;65745;50.278;18.192;2023-01-16T02:57:25;14.60;;;10.00;;
76795;SDS011;65745;50.278;18.192;2023-01-16T02:59:59;14.80;;;9.30;;
76795;SDS011;65745;50.278;18.192;2023-01-16T03:02:33;11.80;;;8.30;;
76795;SDS011;65745;50.278;18.192;2023-01-16T03:05:02;11.60;;;9.60;;
76795;SDS011;65745;50.278;18.192;2023-01-16T03:07:41;11.80;;;8.80;;
76795;SDS011;65745;50.278;18.192;2023-01-16T03:10:32;11.50;;;9.10;;
76795;SDS011;65745;50.278;18.192;2023-01-16T03:13:31;13.60;;;10.20;;
76795;SDS011;65745;50.278;18.192;2023-01-16T03:16:18;13.10;;;9.80;;
76795;SDS011;65745;50.278;18.192;2023-01-16T03:19:06;12.10;;;9.20;;
76795;SDS011;65745;50.278;18.192;2023-01-16T03:21:48;12.30;;;10.00;;
76795;SDS011;65745;50.278;18.192;2023-01-16T03:24:33;12.80;;;9.70;;
76795;SDS011;65745;50.278;18.192;2023-01-16T03:27:28;13.30;;;9.80;;
76795;SDS011;65745;50.278;18.192;2023-01-16T03:30:07;11.30;;;8.70;;
76795;SDS011;65745;50.278;18.192;2023-01-16T03:32:42;12.90;;;10.10;;
76795;SDS011;65745;50.278;18.192;2023-01-16T03:35:17;10.80;;;8.80;;
76795;SDS011;65745;50.278;18.192;2023-01-16T03:37:53;10.80;;;9.20;;
76795;SDS011;65745;50.278;18.192;2023-01-16T03:40:31;10.40;;;7.70;;
76795;SDS011;65745;50.278;18.192;2023-01-16T03:43:05;10.20;;;7.90;;
76795;SDS011;65745;50.278;18.192;2023-01-16T03:45:45;11.50;;;7.60;;
76795;SDS011;65745;50.278;18.192;2023-01-16T03:48:18;9.50;;;7.40;;
76795;SDS011;65745;50.278;18.192;2023-01-16T03:50:52;9.80;;;7.70;;
76795;SDS011;65745;50.278;18.192;2023-01-16T03:53:25;9.50;;;6.20;;
76795;SDS011;65745;50.278;18.192;2023-01-16T03:56:00;9.70;;;6.70;;
76795;SDS011;65745;50.278;18.192;2023-01-16T03:58:49;10.00;;;7.70;;
76795;SDS011;65745;50.278;18.192;2023-01-16T04:01:22;8.90;;;7.30;;
76795;SDS011;65745;50.278;18.192;2023-01-16T04:03:59;9.60;;;7.90;;
76795;SDS011;65745;50.278;18.192;2023-01-16T04:06:43;14.30;;;9.60;;
76795;SDS011;65745;50.278;18.192;2023-01-16T04:09:25;8.20;;;7.00;;
76795;SDS011;65745;50.278;18.192;2023-01-16T04:12:13;8.40;;;6.30;;
76795;SDS011;65745;50.278;18.192;2023-01-16T04:14:52;7.70;;;6.90;;
76795;SDS011;65745;50.278;18.192;2023-01-16T04:17:25;8.60;;;6.80;;
76795;SDS011;65745;50.278;18.192;2023-01-16T04:19:55;7.70;;;6.90;;
76795;SDS011;65745;50.278;18.192;2023-01-16T04:22:28;8.00;;;7.10;;
76795;SDS011;65745;50.278;18.192;2023-01-16T04:25:07;8.30;;;7.00;;
76795;SDS011;65745;50.278;18.192;2023-01-16T04:27:37;8.40;;;7.10;;
76795;SDS011;65745;50.278;18.192;2023-01-16T04:30:10;6.50;;;5.90;;
76795;SDS011;65745;50.278;18.192;2023-01-16T04:32:39;7.70;;;5.40;;
76795;SDS011;65745;50.278;18.192;2023-01-16T04:35:12;8.60;;;6.00;;
76795;SDS011;65745;50.278;18.192;2023-01-16T04:37:41;9.30;;;6.90;;
76795;SDS011;65745;50.278;18.192;2023-01-16T04:40:11;6.30;;;4.70;;
76795;SDS011;65745;50.278;18.192;2023-01-16T04:42:40;9.10;;;6.40;;
76795;SDS011;65745;50.278;18.192;2023-01-16T04:45:10;9.00;;;6.20;;
76795;SDS011;65745;50.278;18.192;2023-01-16T04:47:39;8.60;;;6.60;;
76795;SDS011;65745;50.278;18.192;2023-01-16T04:50:13;7.10;;;5.40;;
76795;SDS011;65745;50.278;18.192;2023-01-16T04:52:42;7.10;;;5.00;;
76795;SDS011;65745;50.278;18.192;2023-01-16T04:57:41;10.00;;;6.10;;
76795;SDS011;65745;50.278;18.192;2023-01-16T05:00:11;8.10;;;5.80;;
76795;SDS011;65745;50.278;18.192;2023-01-16T05:02:41;11.90;;;7.40;;
76795;SDS011;65745;50.278;18.192;2023-01-16T05:05:10;10.50;;;6.00;;
76795;SDS011;65745;50.278;18.192;2023-01-16T05:07:39;8.00;;;5.80;;
76795;SDS011;65745;50.278;18.192;2023-01-16T05:10:10;8.30;;;5.60;;
76795;SDS011;65745;50.278;18.192;2023-01-16T05:12:39;7.80;;;5.10;;
76795;SDS011;65745;50.278;18.192;2023-01-16T05:15:12;5.70;;;4.70;;
76795;SDS011;65745;50.278;18.192;2023-01-16T05:17:41;6.00;;;4.60;;
76795;SDS011;65745;50.278;18.192;2023-01-16T05:20:11;5.80;;;4.00;;
76795;SDS011;65745;50.278;18.192;2023-01-16T05:22:40;6.30;;;4.90;;
76795;SDS011;65745;50.278;18.192;2023-01-16T05:25:10;7.40;;;5.10;;
76795;SDS011;65745;50.278;18.192;2023-01-16T05:27:39;5.20;;;4.60;;
76795;SDS011;65745;50.278;18.192;2023-01-16T05:30:09;5.40;;;4.30;;
76795;SDS011;65745;50.278;18.192;2023-01-16T05:32:40;6.90;;;4.50;;
76795;SDS011;65745;50.278;18.192;2023-01-16T05:35:14;6.20;;;4.20;;
76795;SDS011;65745;50.278;18.192;2023-01-16T05:37:44;8.30;;;5.60;;
76795;SDS011;65745;50.278;18.192;2023-01-16T05:40:16;6.00;;;4.60;;
76795;SDS011;65745;50.278;18.192;2023-01-16T05:42:46;6.10;;;4.60;;
76795;SDS011;65745;50.278;18.192;2023-01-16T05:45:16;6.60;;;4.90;;
76795;SDS011;65745;50.278;18.192;2023-01-16T05:47:44;5.30;;;4.60;;
76795;SDS011;65745;50.278;18.192;2023-01-16T05:50:14;6.90;;;4.50;;
76795;SDS011;65745;50.278;18.192;2023-01-16T05:52:43;7.20;;;5.00;;
76795;SDS011;65745;50.278;18.192;2023-01-16T05:55:13;7.50;;;4.40;;
76795;SDS011;65745;50.278;18.192;2023-01-16T05:57:42;7.80;;;5.60;;
76795;SDS011;65745;50.278;18.192;2023-01-16T06:00:12;9.10;;;5.70;;
76795;SDS011;65745;50.278;18.192;2023-01-16T06:02:44;6.60;;;3.70;;
76795;SDS011;65745;50.278;18.192;2023-01-16T06:05:14;5.50;;;4.20;;
76795;SDS011;65745;50.278;18.192;2023-01-16T06:07:46;4.50;;;3.50;;
76795;SDS011;65745;50.278;18.192;2023-01-16T06:10:16;4.40;;;3.30;;
76795;SDS011;65745;50.278;18.192;2023-01-16T06:12:45;3.80;;;3.00;;
76795;SDS011;65745;50.278;18.192;2023-01-16T06:15:14;4.80;;;3.20;;
76795;SDS011;65745;50.278;18.192;2023-01-16T06:17:44;4.50;;;3.20;;
76795;SDS011;65745;50.278;18.192;2023-01-16T06:20:14;4.30;;;3.40;;
76795;SDS011;65745;50.278;18.192;2023-01-16T06:22:46;4.40;;;3.70;;
76795;SDS011;65745;50.278;18.192;2023-01-16T06:25:16;4.60;;;3.10;;
76795;SDS011;65745;50.278;18.192;2023-01-16T06:27:47;6.50;;;3.20;;
76795;SDS011;65745;50.278;18.192;2023-01-16T06:30:20;5.80;;;3.70;;
76795;SDS011;65745;50.278;18.192;2023-01-16T06:32:53;5.10;;;3.90;;
76795;SDS011;65745;50.278;18.192;2023-01-16T06:35:22;5.00;;;4.10;;
76795;SDS011;65745;50.278;18.192;2023-01-16T06:37:52;5.80;;;5.10;;
76795;SDS011;65745;50.278;18.192;2023-01-16T06:40:22;6.60;;;4.90;;
76795;SDS011;65745;50.278;18.192;2023-01-16T06:42:51;8.00;;;5.70;;
76795;SDS011;65745;50.278;18.192;2023-01-16T06:45:21;5.60;;;4.60;;
76795;SDS011;65745;50.278;18.192;2023-01-16T06:47:51;8.30;;;5.30;;
76795;SDS011;65745;50.278;18.192;2023-01-16T06:50:24;7.20;;;5.40;;
76795;SDS011;65745;50.278;18.192;2023-01-16T06:52:53;8.20;;;5.80;;
76795;SDS011;65745;50.278;18.192;2023-01-16T06:55:36;8.30;;;5.30;;
76795;SDS011;65745;50.278;18.192;2023-01-16T06:58:06;10.30;;;5.80;;
76795;SDS011;65745;50.278;18.192;2023-01-16T07:00:36;9.60;;;6.60;;
76795;SDS011;65745;50.278;18.192;2023-01-16T07:03:06;7.30;;;4.90;;
76795;SDS011;65745;50.278;18.192;2023-01-16T07:05:37;9.30;;;5.50;;
76795;SDS011;65745;50.278;18.192;2023-01-16T07:08:06;11.30;;;6.80;;
76795;SDS011;65745;50.278;18.192;2023-01-16T07:10:35;14.60;;;6.70;;
76795;SDS011;65745;50.278;18.192;2023-01-16T07:13:07;8.50;;;6.20;;
76795;SDS011;65745;50.278;18.192;2023-01-16T07:15:37;8.40;;;6.00;;
76795;SDS011;65745;50.278;18.192;2023-01-16T07:18:29;9.80;;;7.20;;
76795;SDS011;65745;50.278;18.192;2023-01-16T07:21:37;11.00;;;7.10;;
76795;SDS011;65745;50.278;18.192;2023-01-16T07:24:31;10.50;;;6.40;;
76795;SDS011;65745;50.278;18.192;2023-01-16T07:27:04;9.50;;;7.90;;
76795;SDS011;65745;50.278;18.192;2023-01-16T07:29:37;8.80;;;6.70;;
76795;SDS011;65745;50.278;18.192;2023-01-16T07:32:07;10.90;;;6.90;;
76795;SDS011;65745;50.278;18.192;2023-01-16T07:34:37;10.90;;;7.10;;
76795;SDS011;65745;50.278;18.192;2023-01-16T07:37:09;12.30;;;8.10;;
76795;SDS011;65745;50.278;18.192;2023-01-16T07:39:40;10.00;;;6.70;;
76795;SDS011;65745;50.278;18.192;2023-01-16T07:42:09;9.80;;;5.80;;
76795;SDS011;65745;50.278;18.192;2023-01-16T07:44:39;10.40;;;6.70;;
76795;SDS011;65745;50.278;18.192;2023-01-16T07:47:13;11.20;;;6.20;;
76795;SDS011;65745;50.278;18.192;2023-01-16T07:49:48;9.20;;;7.10;;
76795;SDS011;65745;50.278;18.192;2023-01-16T07:52:17;10.70;;;6.90;;
76795;SDS011;65745;50.278;18.192;2023-01-16T07:54:47;10.60;;;8.30;;
76795;SDS011;65745;50.278;18.192;2023-01-16T07:57:16;17.90;;;12.00;;
76795;SDS011;65745;50.278;18.192;2023-01-16T07:59:46;18.30;;;11.10;;
76795;SDS011;65745;50.278;18.192;2023-01-16T08:02:17;17.80;;;10.70;;
76795;SDS011;65745;50.278;18.192;2023-01-16T08:04:46;20.70;;;12.30;;
76795;SDS011;65745;50.278;18.192;2023-01-16T08:07:18;20.00;;;12.10;;
76795;SDS011;65745;50.278;18.192;2023-01-16T08:09:58;24.90;;;13.20;;
76795;SDS011;65745;50.278;18.192;2023-01-16T08:12:38;17.70;;;13.40;;
76795;SDS011;65745;50.278;18.192;2023-01-16T08:15:08;14.80;;;11.20;;
76795;SDS011;65745;50.278;18.192;2023-01-16T08:17:39;15.00;;;10.10;;
76795;SDS011;65745;50.278;18.192;2023-01-16T08:20:20;15.10;;;9.00;;
76795;SDS011;65745;50.278;18.192;2023-01-16T08:22:50;15.00;;;8.80;;
76795;SDS011;65745;50.278;18.192;2023-01-16T08:25:21;16.70;;;10.60;;
76795;SDS011;65745;50.278;18.192;2023-01-16T08:27:52;23.30;;;13.90;;
76795;SDS011;65745;50.278;18.192;2023-01-16T08:30:26;24.80;;;14.20;;
76795;SDS011;65745;50.278;18.192;2023-01-16T08:33:12;17.90;;;9.70;;
76795;SDS011;65745;50.278;18.192;2023-01-16T08:35:51;12.80;;;8.00;;
76795;SDS011;65745;50.278;18.192;2023-01-16T08:38:22;12.10;;;9.50;;
76795;SDS011;65745;50.278;18.192;2023-01-16T08:40:51;15.40;;;12.80;;
76795;SDS011;65745;50.278;18.192;2023-01-16T08:43:21;12.40;;;8.20;;
76795;SDS011;65745;50.278;18.192;2023-01-16T08:46:14;15.60;;;10.00;;
76795;SDS011;65745;50.278;18.192;2023-01-16T08:49:05;15.70;;;10.40;;
76795;SDS011;65745;50.278;18.192;2023-01-16T08:51:59;15.60;;;10.60;;
76795;SDS011;65745;50.278;18.192;2023-01-16T08:54:29;17.40;;;10.80;;
76795;SDS011;65745;50.278;18.192;2023-01-16T08:57:09;14.50;;;10.10;;
76795;SDS011;65745;50.278;18.192;2023-01-16T08:59:38;18.90;;;9.70;;
76795;SDS011;65745;50.278;18.192;2023-01-16T09:02:08;18.30;;;9.70;;
76795;SDS011;65745;50.278;18.192;2023-01-16T09:04:42;16.20;;;9.90;;
76795;SDS011;65745;50.278;18.192;2023-01-16T09:07:12;19.70;;;10.50;;
76795;SDS011;65745;50.278;18.192;2023-01-16T09:09:42;15.70;;;11.40;;
76795;SDS011;65745;50.278;18.192;2023-01-16T09:12:15;15.30;;;8.90;;
76795;SDS011;65745;50.278;18.192;2023-01-16T09:15:09;14.10;;;8.90;;
76795;SDS011;65745;50.278;18.192;2023-01-16T09:17:38;14.90;;;9.00;;
76795;SDS011;65745;50.278;18.192;2023-01-16T09:20:09;16.40;;;9.40;;
76795;SDS011;65745;50.278;18.192;2023-01-16T09:22:39;11.70;;;8.50;;
76795;SDS011;65745;50.278;18.192;2023-01-16T09:25:09;15.70;;;9.30;;
76795;SDS011;65745;50.278;18.192;2023-01-16T09:27:40;13.00;;;7.70;;
76795;SDS011;65745;50.278;18.192;2023-01-16T09:30:13;10.80;;;7.30;;
76795;SDS011;65745;50.278;18.192;2023-01-16T09:32:44;17.40;;;9.30;;
76795;SDS011;65745;50.278;18.192;2023-01-16T09:35:15;11.50;;;8.00;;
76795;SDS011;65745;50.278;18.192;2023-01-16T09:37:45;13.00;;;10.20;;
76795;SDS011;65745;50.278;18.192;2023-01-16T09:40:16;14.40;;;10.60;;
76795;SDS011;65745;50.278;18.192;2023-01-16T09:42:51;13.90;;;9.90;;
76795;SDS011;65745;50.278;18.192;2023-01-16T09:45:47;13.00;;;8.60;;
76795;SDS011;65745;50.278;18.192;2023-01-16T09:48:23;16.00;;;10.00;;
76795;SDS011;65745;50.278;18.192;2023-01-16T09:50:57;13.20;;;11.00;;
76795;SDS011;65745;50.278;18.192;2023-01-16T09:53:39;13.20;;;10.50;;
76795;SDS011;65745;50.278;18.192;2023-01-16T09:56:36;13.70;;;9.50;;
76795;SDS011;65745;50.278;18.192;2023-01-16T09:59:31;12.90;;;8.20;;
76795;SDS011;65745;50.278;18.192;2023-01-16T10:02:13;8.90;;;6.60;;
76795;SDS011;65745;50.278;18.192;2023-01-16T10:04:48;11.00;;;6.70;;
76795;SDS011;65745;50.278;18.192;2023-01-16T10:07:27;10.10;;;6.40;;
76795;SDS011;65745;50.278;18.192;2023-01-16T10:15:58;9.70;;;6.40;;
76795;SDS011;65745;50.278;18.192;2023-01-16T10:18:42;11.90;;;7.90;;
76795;SDS011;65745;50.278;18.192;2023-01-16T10:21:24;13.60;;;7.80;;
76795;SDS011;65745;50.278;18.192;2023-01-16T10:24:09;12.00;;;7.20;;
76795;SDS011;65745;50.278;18.192;2023-01-16T10:26:49;10.00;;;6.30;;
76795;SDS011;65745;50.278;18.192;2023-01-16T10:29:28;10.70;;;6.50;;
76795;SDS011;65745;50.278;18.192;2023-01-16T10:32:12;61.80;;;21.70;;
76795;SDS011;65745;50.278;18.192;2023-01-16T10:34:51;35.40;;;16.00;;
76795;SDS011;65745;50.278;18.192;2023-01-16T10:37:31;17.80;;;8.60;;
76795;SDS011;65745;50.278;18.192;2023-01-16T10:40:13;33.60;;;13.50;;
76795;SDS011;65745;50.278;18.192;2023-01-16T10:42:56;54.80;;;21.40;;
76795;SDS011;65745;50.278;18.192;2023-01-16T10:45:52;31.70;;;13.80;;
76795;SDS011;65745;50.278;18.192;2023-01-16T10:48:46;32.20;;;13.10;;
76795;SDS011;65745;50.278;18.192;2023-01-16T10:51:35;8.90;;;4.90;;
76795;SDS011;65745;50.278;18.192;2023-01-16T10:54:10;8.90;;;5.70;;
76795;SDS011;65745;50.278;18.192;2023-01-16T10:56:40;7.00;;;4.90;;
76795;SDS011;65745;50.278;18.192;2023-01-16T10:59:10;5.90;;;4.80;;
76795;SDS011;65745;50.278;18.192;2023-01-16T11:01:42;6.00;;;4.40;;
76795;SDS011;65745;50.278;18.192;2023-01-16T11:04:23;8.90;;;4.70;;
76795;SDS011;65745;50.278;18.192;2023-01-16T11:07:13;8.50;;;4.80;;
76795;SDS011;65745;50.278;18.192;2023-01-16T11:09:47;7.00;;;4.10;;
76795;SDS011;65745;50.278;18.192;2023-01-16T11:12:21;44.30;;;21.20;;
76795;SDS011;65745;50.278;18.192;2023-01-16T11:15:14;234.60;;;92.90;;
76795;SDS011;65745;50.278;18.192;2023-01-16T11:18:19;73.40;;;31.00;;
76795;SDS011;65745;50.278;18.192;2023-01-16T11:21:14;45.50;;;19.00;;
76795;SDS011;65745;50.278;18.192;2023-01-16T11:23:47;32.10;;;10.80;;
76795;SDS011;65745;50.278;18.192;2023-01-16T11:26:17;10.30;;;4.90;;
76795;SDS011;65745;50.278;18.192;2023-01-16T11:28:52;8.00;;;4.90;;
76795;SDS011;65745;50.278;18.192;2023-01-16T11:31:26;7.40;;;4.70;;
76795;SDS011;65745;50.278;18.192;2023-01-16T11:34:10;8.60;;;4.10;;
76795;SDS011;65745;50.278;18.192;2023-01-16T11:36:42;6.10;;;3.50;;
76795;SDS011;65745;50.278;18.192;2023-01-16T11:39:17;7.00;;;4.10;;
76795;SDS011;65745;50.278;18.192;2023-01-16T11:41:56;24.10;;;11.10;;
76795;SDS011;65745;50.278;18.192;2023-01-16T11:44:54;12.80;;;5.90;;
76795;SDS011;65745;50.278;18.192;2023-01-16T11:47:44;8.50;;;5.40;;
76795;SDS011;65745;50.278;18.192;2023-01-16T11:52:54;7.30;;;5.20;;
76795;SDS011;65745;50.278;18.192;2023-01-16T11:55:25;8.60;;;5.90;;
76795;SDS011;65745;50.278;18.192;2023-01-16T11:58:05;12.70;;;7.90;;
76795;SDS011;65745;50.278;18.192;2023-01-16T12:00:48;17.20;;;9.50;;
76795;SDS011;65745;50.278;18.192;2023-01-16T12:03:47;16.70;;;10.00;;
76795;SDS011;65745;50.278;18.192;2023-01-16T12:06:40;4.50;;;3.10;;
76795;SDS011;65745;50.278;18.192;2023-01-16T12:09:23;5.80;;;3.40;;
76795;SDS011;65745;50.278;18.192;2023-01-16T12:12:09;14.70;;;7.10;;
76795;SDS011;65745;50.278;18.192;2023-01-16T12:15:04;27.50;;;13.80;;
76795;SDS011;65745;50.278;18.192;2023-01-16T12:17:47;21.60;;;9.90;;
76795;SDS011;65745;50.278;18.192;2023-01-16T12:20:28;18.80;;;10.30;;
76795;SDS011;65745;50.278;18.192;2023-01-16T12:23:18;23.00;;;11.00;;
76795;SDS011;65745;50.278;18.192;2023-01-16T12:26:06;38.60;;;16.20;;
76795;SDS011;65745;50.278;18.192;2023-01-16T12:28:46;39.80;;;18.30;;
76795;SDS011;65745;50.278;18.192;2023-01-16T12:31:28;25.70;;;13.70;;
76795;SDS011;65745;50.278;18.192;2023-01-16T12:34:16;21.90;;;12.00;;
76795;SDS011;65745;50.278;18.192;2023-01-16T12:37:23;4.90;;;3.30;;
76795;SDS011;65745;50.278;18.192;2023-01-16T12:40:17;6.10;;;4.60;;
76795;SDS011;65745;50.278;18.192;2023-01-16T12:42:58;15.40;;;7.10;;
76795;SDS011;65745;50.278;18.192;2023-01-16T12:45:58;17.70;;;7.00;;
76795;SDS011;65745;50.278;18.192;2023-01-16T12:48:45;18.10;;;10.00;;
76795;SDS011;65745;50.278;18.192;2023-01-16T12:51:33;10.00;;;5.40;;
76795;SDS011;65745;50.278;18.192;2023-01-16T12:54:19;10.90;;;6.30;;
76795;SDS011;65745;50.278;18.192;2023-01-16T12:57:21;13.50;;;7.20;;
76795;SDS011;65745;50.278;18.192;2023-01-16T13:00:22;13.00;;;6.80;;
76795;SDS011;65745;50.278;18.192;2023-01-16T13:02:56;12.30;;;6.90;;
76795;SDS011;65745;50.278;18.192;2023-01-16T13:05:39;10.30;;;6.30;;
76795;SDS011;65745;50.278;18.192;2023-01-16T13:11:14;10.00;;;6.20;;
76795;SDS011;65745;50.278;18.192;2023-01-16T13:14:09;9.20;;;5.60;;
76795;SDS011;65745;50.278;18.192;2023-01-16T13:16:41;11.80;;;5.90;;
76795;SDS011;65745;50.278;18.192;2023-01-16T13:19:57;13.70;;;7.90;;
76795;SDS011;65745;50.278;18.192;2023-01-16T13:22:43;15.30;;;7.90;;
76795;SDS011;65745;50.278;18.192;2023-01-16T13:25:21;12.40;;;6.70;;
76795;SDS011;65745;50.278;18.192;2023-01-16T13:28:00;14.30;;;7.70;;
76795;SDS011;65745;50.278;18.192;2023-01-16T13:30:47;12.80;;;6.90;;
76795;SDS011;65745;50.278;18.192;2023-01-16T13:33:21;17.70;;;9.70;;
76795;SDS011;65745;50.278;18.192;2023-01-16T13:35:57;13.90;;;8.20;;
76795;SDS011;65745;50.278;18.192;2023-01-16T13:38:43;9.40;;;5.90;;
76795;SDS011;65745;50.278;18.192;2023-01-16T13:41:34;10.90;;;6.20;;
76795;SDS011;65745;50.278;18.192;2023-01-16T13:44:11;14.10;;;8.10;;
76795;SDS011;65745;50.278;18.192;2023-01-16T13:47:09;17.80;;;9.00;;
76795;SDS011;65745;50.278;18.192;2023-01-16T13:50:05;12.30;;;8.30;;
76795;SDS011;65745;50.278;18.192;2023-01-16T13:53:12;11.50;;;8.40;;
76795;SDS011;65745;50.278;18.192;2023-01-16T13:55:44;17.70;;;12.80;;
76795;SDS011;65745;50.278;18.192;2023-01-16T13:58:17;19.40;;;13.60;;
76795;SDS011;65745;50.278;18.192;2023-01-16T14:00:56;12.80;;;9.30;;
76795;SDS011;65745;50.278;18.192;2023-01-16T14:03:32;12.50;;;10.20;;
76795;SDS011;65745;50.278;18.192;2023-01-16T14:06:19;15.70;;;11.30;;
76795;SDS011;65745;50.278;18.192;2023-01-16T14:09:06;20.10;;;15.80;;
76795;SDS011;65745;50.278;18.192;2023-01-16T14:12:00;32.40;;;22.90;;
76795;SDS011;65745;50.278;18.192;2023-01-16T14:14:49;16.00;;;12.70;;
76795;SDS011;65745;50.278;18.192;2023-01-16T14:18:02;16.40;;;11.30;;
76795;SDS011;65745;50.278;18.192;2023-01-16T14:20:44;16.90;;;11.80;;
76795;SDS011;65745;50.278;18.192;2023-01-16T14:23:21;24.60;;;15.80;;
76795;SDS011;65745;50.278;18.192;2023-01-16T14:26:15;18.60;;;14.20;;
76795;SDS011;65745;50.278;18.192;2023-01-16T14:28:54;26.90;;;16.00;;
76795;SDS011;65745;50.278;18.192;2023-01-16T14:31:24;25.40;;;17.40;;
76795;SDS011;65745;50.278;18.192;2023-01-16T14:34:03;25.70;;;19.60;;
76795;SDS011;65745;50.278;18.192;2023-01-16T14:36:42;40.70;;;35.20;;
76795;SDS011;65745;50.278;18.192;2023-01-16T14:39:29;38.80;;;31.20;;
76795;SDS011;65745;50.278;18.192;2023-01-16T14:42:03;33.60;;;24.10;;
76795;SDS011;65745;50.278;18.192;2023-01-16T14:45:25;30.30;;;27.00;;
76795;SDS011;65745;50.278;18.192;2023-01-16T14:48:30;44.00;;;31.00;;
76795;SDS011;65745;50.278;18.192;2023-01-16T14:51:28;48.00;;;33.80;;
76795;SDS011;65745;50.278;18.192;2023-01-16T14:54:17;46.50;;;27.30;;
76795;SDS011;65745;50.278;18.192;2023-01-16T14:57:22;32.90;;;22.30;;
76795;SDS011;65745;50.278;18.192;2023-01-16T15:00:36;29.90;;;18.00;;
76795;SDS011;65745;50.278;18.192;2023-01-16T15:03:09;28.50;;;16.50;;
76795;SDS011;65745;50.278;18.192;2023-01-16T15:05:41;28.40;;;15.40;;
76795;SDS011;65745;50.278;18.192;2023-01-16T15:08:23;21.10;;;12.20;;
76795;SDS011;65745;50.278;18.192;2023-01-16T15:10:56;22.30;;;12.40;;
76795;SDS011;65745;50.278;18.192;2023-01-16T15:13:49;47.70;;;28.20;;
76795;SDS011;65745;50.278;18.192;2023-01-16T15:16:47;100.80;;;56.90;;
76795;SDS011;65745;50.278;18.192;2023-01-16T15:22:46;170.60;;;92.90;;
76795;SDS011;65745;50.278;18.192;2023-01-16T15:25:22;122.10;;;65.30;;
76795;SDS011;65745;50.278;18.192;2023-01-16T15:28:11;117.90;;;65.50;;
76795;SDS011;65745;50.278;18.192;2023-01-16T15:30:47;137.40;;;77.60;;
76795;SDS011;65745;50.278;18.192;2023-01-16T15:33:30;87.60;;;54.10;;
76795;SDS011;65745;50.278;18.192;2023-01-16T15:36:22;73.40;;;52.60;;
76795;SDS011;65745;50.278;18.192;2023-01-16T15:38:59;95.30;;;67.40;;
76795;SDS011;65745;50.278;18.192;2023-01-16T15:41:45;97.20;;;59.50;;
76795;SDS011;65745;50.278;18.192;2023-01-16T15:44:41;84.40;;;40.20;;
76795;SDS011;65745;50.278;18.192;2023-01-16T15:50:44;34.10;;;18.20;;
76795;SDS011;65745;50.278;18.192;2023-01-16T15:53:21;58.00;;;26.90;;
76795;SDS011;65745;50.278;18.192;2023-01-16T15:55:55;56.90;;;27.70;;